Bookmark and Share
Track history (hours):
 

Fernando Pessoa

Last reported at 2014-Apr-23 21:18 UTC. Time now 2014-Apr-25 05:47 UTC.
Position N 38°39' W 009°05'.

Length 49 m.

MMSI: 263701470.

NotesDate/timePositionNaut miles runAvg speedWind from/ knotsBaromVisibWave heightAir tempDewpointWater temp
2014-Apr-23 21:18N 38°39' W 009°05'0 0.0
2014-Apr-23 20:33N 38°39' W 009°05'0 0.0
2014-Apr-23 19:33N 38°39' W 009°05'4 3.5
2014-Apr-23 18:33N 38°42' W 009°08'1 0.6
2014-Apr-23 17:34N 38°42' W 009°08'3 2.5
2014-Apr-23 16:33N 38°40' W 009°07'1 1.3
2014-Apr-23 15:34N 38°39' W 009°06'1 0.7
2014-Apr-23 14:34N 38°40' W 009°06'1 1.3
2014-Apr-23 13:34N 38°39' W 009°05'0 0.0
2014-Apr-23 12:34N 38°39' W 009°05'0 0.0
2014-Apr-23 11:34N 38°39' W 009°05'0 0.0
2014-Apr-23 10:33N 38°39' W 009°05'0 0.1
2014-Apr-23 09:34N 38°39' W 009°05'1 1.4
2014-Apr-23 08:34N 38°40' W 009°06'1 0.8
2014-Apr-23 07:34N 38°40' W 009°07'2 2.0
2014-Apr-23 06:33N 38°39' W 009°05'0 0.0
2014-Apr-23 05:33N 38°39' W 009°05'0 0.0
2014-Apr-23 04:33N 38°39' W 009°05'0 0.0
2014-Apr-23 03:33N 38°39' W 009°05'0 0.0
2014-Apr-23 02:33N 38°39' W 009°05'0 0.0
2014-Apr-23 01:33N 38°39' W 009°05'0 0.0
2014-Apr-23 00:33N 38°39' W 009°05'0 0.0
2014-Apr-22 23:33N 38°39' W 009°05'4 3.8
2014-Apr-22 22:33N 38°42' W 009°08'1 1.2
2014-Apr-22 21:33N 38°41' W 009°08'0 0.1
2014-Apr-22 20:33N 38°41' W 009°07'3 2.6
2014-Apr-22 19:33N 38°39' W 009°05'0 0.5
2014-Apr-22 18:33N 38°39' W 009°05'1 0.5
2014-Apr-22 17:34N 38°39' W 009°05'1 0.9
2014-Apr-22 16:34N 38°39' W 009°06'1 0.8
2014-Apr-22 15:33N 38°39' W 009°05'0 0.0
2014-Apr-22 12:17N 38°39' W 009°05'0 0.0
2014-Apr-22 11:33N 38°39' W 009°05'0 0.0
2014-Apr-22 10:33N 38°39' W 009°05'1 1.2
2014-Apr-22 09:34N 38°40' W 009°06'1 0.7
2014-Apr-22 08:34N 38°39' W 009°06'3 3.2
2014-Apr-22 07:33N 38°42' W 009°08'1 0.6
2014-Apr-22 06:33N 38°42' W 009°08'4 4.0
2014-Apr-22 05:33N 38°39' W 009°05'0 0.0
2014-Apr-21 20:25N 38°39' W 009°05'3 3.4
2014-Apr-21 19:33N 38°41' W 009°08'2 2.3
2014-Apr-21 18:34N 38°39' W 009°06'3 3.1
2014-Apr-21 17:34N 38°42' W 009°08'0 0.4
2014-Apr-21 16:33N 38°42' W 009°08'1 1.2
2014-Apr-21 15:34N 38°41' W 009°08'3 3.1
2014-Apr-21 14:34N 38°39' W 009°05'2 1.7
2014-Apr-21 13:33N 38°40' W 009°07'0 0.2
2014-Apr-21 12:34N 38°40' W 009°06'0 0.3
2014-Apr-21 11:33N 38°40' W 009°06'0 0.1
2014-Apr-21 10:33N 38°40' W 009°06'1 1.0
2014-Apr-21 09:33N 38°39' W 009°05'0 0.0
2014-Apr-21 08:33N 38°39' W 009°05'0 0.0
2014-Apr-21 07:33N 38°39' W 009°05'1 0.9
2014-Apr-21 06:33N 38°39' W 009°06'1 0.7
2014-Apr-21 05:29N 38°39' W 009°05'0 0.0
2014-Apr-19 10:33N 38°39' W 009°05'1 1.1
2014-Apr-19 09:34N 38°40' W 009°06'1 0.5
2014-Apr-19 08:33N 38°40' W 009°07'0 0.2
2014-Apr-19 07:33N 38°40' W 009°07'0 0.0
2014-Apr-19 06:33N 38°40' W 009°07'2 2.1
2014-Apr-19 05:34N 38°42' W 009°08'0 0.2
2014-Apr-19 04:33N 38°42' W 009°08'3 3.4
2014-Apr-19 03:34N 38°39' W 009°05'0 0.0
2014-Apr-19 02:33N 38°39' W 009°05'0 0.0
2014-Apr-19 01:34N 38°39' W 009°05'0 0.3
2014-Apr-19 00:34N 38°39' W 009°05'0 0.3
2014-Apr-18 23:34N 38°39' W 009°05'0 0.2
2014-Apr-18 22:34N 38°39' W 009°05'1 1.3
2014-Apr-18 21:34N 38°40' W 009°07'0 0.3
2014-Apr-18 20:33N 38°40' W 009°07'1 0.6
2014-Apr-18 19:33N 38°40' W 009°06'1 1.5
2014-Apr-18 18:33N 38°41' W 009°08'0 0.2
2014-Apr-18 17:34N 38°41' W 009°08'0 0.1
2014-Apr-18 16:34N 38°41' W 009°08'0 0.3
2014-Apr-18 15:33N 38°41' W 009°08'0 0.1
2014-Apr-18 14:33N 38°41' W 009°08'3 2.7
2014-Apr-18 13:33N 38°39' W 009°05'0 0.0
2014-Apr-18 12:33N 38°39' W 009°05'2 1.6
2014-Apr-18 11:34N 38°40' W 009°07'0 0.5
2014-Apr-18 10:33N 38°40' W 009°06'0 0.4
2014-Apr-18 09:34N 38°40' W 009°06'0 0.0
2014-Apr-18 08:34N 38°40' W 009°06'0 0.0
2014-Apr-18 07:33N 38°40' W 009°07'0 0.1
2014-Apr-18 06:34N 38°40' W 009°06'2 1.8
2014-Apr-18 05:33N 38°41' W 009°08'0 0.2
2014-Apr-18 04:33N 38°41' W 009°08'3 3.3
2014-Apr-18 03:33N 38°39' W 009°05'0 0.0
2014-Apr-18 02:33N 38°39' W 009°05'0 0.0
2014-Apr-18 01:33N 38°39' W 009°05'0 0.3
2014-Apr-18 00:34N 38°39' W 009°05'0 0.2
2014-Apr-17 23:34N 38°39' W 009°05'0 0.4
2014-Apr-17 22:34N 38°39' W 009°05'1 1.4
2014-Apr-17 21:34N 38°40' W 009°06'0 0.2
2014-Apr-17 20:34N 38°40' W 009°07'2 1.7
2014-Apr-17 19:33N 38°39' W 009°05'0 0.0
2014-Apr-17 18:34N 38°39' W 009°05'1 1.0
2014-Apr-17 17:34N 38°39' W 009°06'3 3.0
2014-Apr-17 16:34N 38°42' W 009°08'4 3.7
2014-Apr-17 15:33N 38°39' W 009°05'0 0.0
2014-Apr-17 12:28N 38°39' W 009°05'1 1.6
2014-Apr-17 11:33N 38°40' W 009°07'0 0.4
2014-Apr-17 10:33N 38°40' W 009°06'1 1.2
2014-Apr-17 09:33N 38°39' W 009°05'0 0.0
2014-Apr-17 08:33N 38°39' W 009°05'0 0.0
2014-Apr-17 07:33N 38°39' W 009°05'1 0.8
2014-Apr-17 06:33N 38°39' W 009°06'1 0.7
2014-Apr-17 05:33N 38°39' W 009°05'0 0.0
2014-Apr-16 20:34N 38°39' W 009°05'0 0.0
2014-Apr-16 19:33N 38°39' W 009°05'4 3.8
2014-Apr-16 18:33N 38°42' W 009°08'2 1.9
2014-Apr-16 17:34N 38°40' W 009°07'2 2.2
2014-Apr-16 16:33N 38°39' W 009°05'0 0.1
2014-Apr-16 15:34N 38°39' W 009°05'0 0.1
2014-Apr-16 14:33N 38°39' W 009°05'0 0.0
2014-Apr-16 12:28N 38°39' W 009°05'1 1.1
2014-Apr-16 11:34N 38°40' W 009°06'0 0.3
2014-Apr-16 10:34N 38°40' W 009°06'1 1.3
2014-Apr-16 09:33N 38°39' W 009°05'0 0.0
2014-Apr-16 08:34N 38°39' W 009°05'0 0.0
2014-Apr-16 07:33N 38°39' W 009°05'1 1.2
2014-Apr-16 06:34N 38°40' W 009°06'1 1.1
2014-Apr-16 05:34N 38°39' W 009°05'0 0.0
2014-Apr-16 04:34N 38°39' W 009°05'0 0.0
2014-Apr-16 03:34N 38°39' W 009°05'0 0.0
2014-Apr-16 02:34N 38°39' W 009°05'0 0.0
2014-Apr-16 01:34N 38°39' W 009°05'0 0.0
2014-Apr-16 00:34N 38°39' W 009°05'0 0.0
2014-Apr-15 23:34N 38°39' W 009°05'0 0.0
2014-Apr-15 22:34N 38°39' W 009°05'0 0.0
2014-Apr-15 21:34N 38°39' W 009°05'0 0.1
2014-Apr-15 20:34N 38°39' W 009°05'0 0.0
2014-Apr-15 19:33N 38°39' W 009°05'4 3.7
2014-Apr-15 18:33N 38°42' W 009°08'2 1.8
2014-Apr-15 17:34N 38°40' W 009°07'2 2.2
2014-Apr-15 16:33N 38°39' W 009°05'0 0.2
2014-Apr-15 15:33N 38°39' W 009°05'0 0.1
2014-Apr-15 14:32N 38°39' W 009°05'0 0.0
2014-Apr-15 11:34N 38°39' W 009°05'0 0.0
2014-Apr-15 09:29N 38°39' W 009°05'1 0.8
2014-Apr-15 08:33N 38°39' W 009°06'0 0.1
2014-Apr-15 07:34N 38°39' W 009°06'3 2.9
2014-Apr-15 06:34N 38°42' W 009°08'0 0.4
2014-Apr-15 05:34N 38°42' W 009°08'1 0.1
2014-Apr-14 18:34N 38°41' W 009°08'3 2.7
2014-Apr-14 17:34N 38°39' W 009°06'3 3.3
2014-Apr-14 16:34N 38°42' W 009°08'0 0.2
2014-Apr-14 15:34N 38°42' W 009°08'1 0.8
2014-Apr-14 14:34N 38°41' W 009°08'3 3.4
2014-Apr-14 13:34N 38°39' W 009°05'2 0.8
2014-Apr-14 11:34N 38°40' W 009°06'1 1.5
2014-Apr-14 10:34N 38°39' W 009°05'3 1.3
2014-Apr-14 08:33N 38°41' W 009°08'3 2.7
2014-Apr-14 07:33N 38°39' W 009°05'1 0.7
2014-Apr-14 06:34N 38°39' W 009°06'3 3.3
2014-Apr-14 05:33N 38°42' W 009°08'4 0.5
2014-Apr-13 22:33N 38°39' W 009°05'1 1.1
2014-Apr-13 21:33N 38°40' W 009°06'  

Dump ship's entire track history

sailing weather and tide predictions

Fernando Pessoa — CSKQ — position and weather